Time;durP1;ratioP1;P1;durP2;ratioP2;P2;SDS_P1;SDS_P2;PMS_P1;PMS_P2;Temp;Humidity;BMP_temperature;BMP_pressure;BME280_temperature;BME280_humidity;BME280_pressure;Samples;Min_cycle;Max_cycle;Signal;HPM_P1;HPM_P2
2022/03/31 00:00:43;;;;;;;;;58.33;47.33;;;;;;;;5115142;27;45351;-71
2022/03/31 00:03:13;;;;;;;;;56.33;44.33;;;;;;;;5120610;27;46250;-72
2022/03/31 00:05:39;;;;;;;;;63.33;47.00;;;;;;;;5133364;27;45473;-72
2022/03/31 00:08:09;;;;;;;;;60.67;44.33;;;;;;;;5125188;27;45436;-72
2022/03/31 00:10:34;;;;;;;;;62.33;46.67;;;;;;;;5139171;27;45483;-72
2022/03/31 00:13:00;;;;;;;;;61.67;46.33;;;;;;;;5138421;27;45283;-72
2022/03/31 00:15:26;;;;;;;;;57.00;44.00;;;;;;;;5125045;27;45486;-72
2022/03/31 00:17:52;;;;;;;;;63.67;47.33;;;;;;;;5139029;27;45276;-72
2022/03/31 00:20:17;;;;;;;;;62.00;47.33;;;;;;;;5118461;27;45231;-72
2022/03/31 00:22:42;;;;;;;;;62.67;49.00;;;;;;;;5117997;27;45646;-73
2022/03/31 00:25:08;;;;;;;;;71.25;54.75;;;;;;;;5117699;27;45484;-72
2022/03/31 00:27:38;;;;;;;;;61.33;48.00;;;;;;;;5118247;27;45325;-73
2022/03/31 00:30:05;;;;;;;;;67.33;48.00;;;;;;;;5117718;27;45172;-72
2022/03/31 00:32:30;;;;;;;;;64.67;48.67;;;;;;;;5119719;27;46599;-72
2022/03/31 00:34:55;;;;;;;;;69.00;51.00;;;;;;;;5138170;27;45201;-72
2022/03/31 00:37:21;;;;;;;;;57.67;42.67;;;;;;;;5138614;27;45240;-72
2022/03/31 00:39:48;;;;;;;;;59.33;44.33;;;;;;;;5139042;27;45213;-72
2022/03/31 00:42:15;;;;;;;;;54.67;42.33;;;;;;;;5122679;27;46222;-72
2022/03/31 00:44:41;;;;;;;;;57.00;44.33;;;;;;;;5136939;27;45261;-72
2022/03/31 00:47:07;;;;;;;;;56.67;42.33;;;;;;;;5124955;27;45323;-72
2022/03/31 00:49:34;;;;;;;;;61.67;47.33;;;;;;;;5117718;27;45429;-72
2022/03/31 00:51:59;;;;;;;;;67.33;51.00;;;;;;;;5120015;27;45582;-72
2022/03/31 00:54:28;;;;;;;;;54.00;44.00;;;;;;;;5121148;27;45432;-72
2022/03/31 00:56:53;;;;;;;;;61.00;45.67;;;;;;;;5121180;27;45315;-72
2022/03/31 00:59:19;;;;;;;;;60.33;44.67;;;;;;;;5121200;27;45503;-72
2022/03/31 01:01:45;;;;;;;;;54.00;36.67;;;;;;;;5119425;27;46990;-72
2022/03/31 01:04:11;;;;;;;;;48.67;40.00;;;;;;;;5120555;27;45429;-72
2022/03/31 01:06:36;;;;;;;;;52.00;42.00;;;;;;;;5135870;27;45906;-72
2022/03/31 01:09:02;;;;;;;;;54.33;43.33;;;;;;;;5132567;27;45350;-72
2022/03/31 01:11:29;;;;;;;;;59.00;44.33;;;;;;;;5121241;27;46197;-72
2022/03/31 01:13:55;;;;;;;;;62.00;44.33;;;;;;;;5120542;27;45211;-72
2022/03/31 01:16:20;;;;;;;;;50.00;42.33;;;;;;;;5121156;27;45268;-72
2022/03/31 01:18:45;;;;;;;;;57.33;46.33;;;;;;;;5136410;27;45358;-72
2022/03/31 01:21:10;;;;;;;;;60.00;45.67;;;;;;;;5140613;27;46633;-72
2022/03/31 01:23:36;;;;;;;;;50.00;39.00;;;;;;;;5141332;27;45506;-72
2022/03/31 01:26:01;;;;;;;;;59.33;46.67;;;;;;;;5125897;27;45493;-73
2022/03/31 01:28:27;;;;;;;;;58.67;46.33;;;;;;;;5125150;27;45539;-72
2022/03/31 01:30:52;;;;;;;;;54.67;42.00;;;;;;;;5139669;27;46684;-72
2022/03/31 01:33:17;;;;;;;;;61.67;45.67;;;;;;;;5139538;27;45231;-73
2022/03/31 01:35:42;;;;;;;;;53.67;43.67;;;;;;;;5140721;27;45607;-73
2022/03/31 01:38:08;;;;;;;;;54.67;43.00;;;;;;;;5141493;27;45370;-73
2022/03/31 01:40:34;;;;;;;;;54.67;42.00;;;;;;;;5139412;27;46460;-72
2022/03/31 01:43:00;;;;;;;;;49.00;41.33;;;;;;;;5140766;27;45394;-72
2022/03/31 01:45:26;;;;;;;;;52.00;42.00;;;;;;;;5140390;27;45354;-73
2022/03/31 01:47:51;;;;;;;;;54.33;41.33;;;;;;;;5132938;27;45354;-73
2022/03/31 01:50:16;;;;;;;;;50.00;39.00;;;;;;;;5119906;27;46531;-73
2022/03/31 01:52:42;;;;;;;;;50.67;39.67;;;;;;;;5119483;27;45479;-73
2022/03/31 01:55:07;;;;;;;;;52.00;39.00;;;;;;;;5120630;27;45488;-73
2022/03/31 01:57:33;;;;;;;;;49.33;37.33;;;;;;;;5120455;27;46904;-73
2022/03/31 02:00:02;;;;;;;;;48.33;35.33;;;;;;;;5119852;27;46301;-73
2022/03/31 02:02:27;;;;;;;;;41.67;36.00;;;;;;;;5119558;27;45334;-72
2022/03/31 02:04:52;;;;;;;;;51.67;37.00;;;;;;;;5121219;27;45360;-73
2022/03/31 02:07:18;;;;;;;;;41.00;31.33;;;;;;;;5130325;27;45423;-73
2022/03/31 02:09:43;;;;;;;;;38.00;35.67;;;;;;;;5140371;27;45558;-73
2022/03/31 02:12:08;;;;;;;;;48.33;36.00;;;;;;;;5130474;27;45383;-72
2022/03/31 02:14:37;;;;;;;;;49.00;31.67;;;;;;;;5123116;27;45325;-72
2022/03/31 02:17:06;;;;;;;;;25.00;24.33;;;;;;;;5131008;27;45515;-72
2022/03/31 02:19:31;;;;;;;;;35.33;27.67;;;;;;;;5118637;27;46605;-73
2022/03/31 02:21:56;;;;;;;;;37.00;32.00;;;;;;;;5119709;27;45419;-72
2022/03/31 02:24:22;;;;;;;;;37.33;28.00;;;;;;;;5120259;27;45469;-73
2022/03/31 02:26:48;;;;;;;;;22.00;21.33;;;;;;;;5120288;27;45617;-72
2022/03/31 02:29:13;;;;;;;;;35.00;28.00;;;;;;;;5119500;27;46570;-72
2022/03/31 02:31:38;;;;;;;;;36.00;32.33;;;;;;;;5119119;27;45362;-72
2022/03/31 02:34:04;;;;;;;;;40.67;31.33;;;;;;;;5118862;27;45419;-72
2022/03/31 02:36:30;;;;;;;;;36.00;33.00;;;;;;;;5139201;27;45302;-73
2022/03/31 02:38:56;;;;;;;;;33.00;29.00;;;;;;;;5129297;27;45458;-73
2022/03/31 02:41:21;;;;;;;;;33.33;31.67;;;;;;;;5118973;27;45322;-73
2022/03/31 02:43:46;;;;;;;;;37.00;33.33;;;;;;;;5119581;27;45393;-73
2022/03/31 02:46:11;;;;;;;;;38.00;28.33;;;;;;;;5119983;27;45293;-73
2022/03/31 02:48:37;;;;;;;;;41.67;33.67;;;;;;;;5118702;27;45504;-74
2022/03/31 02:51:02;;;;;;;;;36.00;30.67;;;;;;;;5119053;27;45540;-73
2022/03/31 02:56:11;;;;;;;;;36.00;34.33;;;;;;;;5119825;27;45316;-73
2022/03/31 02:58:36;;;;;;;;;37.33;33.33;;;;;;;;5119227;27;45407;-73
2022/03/31 03:01:01;;;;;;;;;37.00;31.33;;;;;;;;5118621;27;45365;-73
2022/03/31 03:03:28;;;;;;;;;36.00;32.33;;;;;;;;5118617;27;45298;-74
2022/03/31 03:05:54;;;;;;;;;30.67;27.67;;;;;;;;5132150;27;45306;-73
2022/03/31 03:08:19;;;;;;;;;35.67;30.67;;;;;;;;5137604;27;45447;-73
2022/03/31 03:10:45;;;;;;;;;31.67;28.67;;;;;;;;5139334;27;45439;-72
2022/03/31 03:13:11;;;;;;;;;28.33;25.00;;;;;;;;5138610;27;45260;-73
2022/03/31 03:15:36;;;;;;;;;29.67;27.00;;;;;;;;5136279;27;45356;-73
2022/03/31 03:18:02;;;;;;;;;28.33;27.00;;;;;;;;5118613;27;46962;-72
2022/03/31 03:20:28;;;;;;;;;31.67;27.00;;;;;;;;5129761;27;45312;-72
2022/03/31 03:22:54;;;;;;;;;28.33;27.33;;;;;;;;5139715;27;45313;-72
2022/03/31 03:25:20;;;;;;;;;21.67;21.67;;;;;;;;5138673;27;45358;-73
2022/03/31 03:27:47;;;;;;;;;24.67;22.00;;;;;;;;5130733;27;46420;-72
2022/03/31 03:30:12;;;;;;;;;24.00;22.33;;;;;;;;5119440;27;45493;-72
2022/03/31 03:32:38;;;;;;;;;21.00;21.00;;;;;;;;5120012;27;45536;-73
2022/03/31 03:35:04;;;;;;;;;21.67;16.33;;;;;;;;5136593;27;45237;-73
2022/03/31 03:37:30;;;;;;;;;14.00;13.33;;;;;;;;5135478;27;46343;-73
2022/03/31 03:39:55;;;;;;;;;12.67;10.33;;;;;;;;5118840;27;45186;-73
2022/03/31 03:42:20;;;;;;;;;16.33;12.67;;;;;;;;5118929;27;45421;-72
2022/03/31 03:44:45;;;;;;;;;15.00;12.00;;;;;;;;5118899;27;45537;-73
2022/03/31 03:47:10;;;;;;;;;8.67;8.67;;;;;;;;5118764;27;46731;-72
2022/03/31 03:49:36;;;;;;;;;8.00;8.00;;;;;;;;5135058;27;45231;-72
2022/03/31 03:52:01;;;;;;;;;9.67;8.33;;;;;;;;5118403;27;45302;-72
2022/03/31 03:54:27;;;;;;;;;5.00;5.00;;;;;;;;5118245;27;45489;-72
2022/03/31 03:56:52;;;;;;;;;4.67;4.00;;;;;;;;5118553;27;45319;-72
2022/03/31 03:59:17;;;;;;;;;3.00;3.00;;;;;;;;5118038;27;45330;-72
2022/03/31 04:01:42;;;;;;;;;5.00;4.00;;;;;;;;5117790;27;45367;-72
2022/03/31 04:04:08;;;;;;;;;6.33;5.00;;;;;;;;5132414;27;45695;-72
2022/03/31 04:06:33;;;;;;;;;4.67;3.00;;;;;;;;5131449;27;46333;-72
2022/03/31 04:08:58;;;;;;;;;2.00;2.00;;;;;;;;5138246;27;45435;-72
2022/03/31 04:11:23;;;;;;;;;6.67;4.00;;;;;;;;5126795;27;45333;-71
2022/03/31 04:13:49;;;;;;;;;3.33;3.33;;;;;;;;5138925;27;45413;-72
2022/03/31 04:16:15;;;;;;;;;3.00;3.00;;;;;;;;5127372;27;46166;-72
2022/03/31 04:18:40;;;;;;;;;3.00;2.00;;;;;;;;5118221;27;45539;-72
2022/03/31 04:21:05;;;;;;;;;2.00;2.00;;;;;;;;5118404;27;45364;-72
2022/03/31 04:23:31;;;;;;;;;4.33;3.00;;;;;;;;5118329;27;45479;-72
2022/03/31 04:25:56;;;;;;;;;3.00;3.00;;;;;;;;5120904;27;46081;-72
2022/03/31 04:28:21;;;;;;;;;2.00;2.00;;;;;;;;5120991;27;45350;-72
2022/03/31 04:30:46;;;;;;;;;3.00;3.00;;;;;;;;5121485;27;45366;-72
2022/03/31 04:33:12;;;;;;;;;3.00;3.00;;;;;;;;5121951;27;45309;-73
2022/03/31 04:35:37;;;;;;;;;2.33;2.33;;;;;;;;5121385;27;46513;-72
2022/03/31 04:38:03;;;;;;;;;4.00;4.00;;;;;;;;5120971;27;45401;-75
2022/03/31 04:40:28;;;;;;;;;3.00;3.00;;;;;;;;5121629;27;45451;-73
2022/03/31 04:42:54;;;;;;;;;3.67;2.67;;;;;;;;5121774;27;45276;-73
2022/03/31 04:45:19;;;;;;;;;5.00;3.00;;;;;;;;5121435;27;47053;-72
2022/03/31 04:47:45;;;;;;;;;2.67;2.67;;;;;;;;5121160;27;45346;-72
2022/03/31 04:50:11;;;;;;;;;5.00;3.00;;;;;;;;5121331;27;45386;-72
2022/03/31 04:52:36;;;;;;;;;2.67;2.67;;;;;;;;5121018;27;45353;-72
2022/03/31 04:55:01;;;;;;;;;4.33;3.00;;;;;;;;5121239;27;45433;-73
2022/03/31 04:57:26;;;;;;;;;2.00;2.00;;;;;;;;5121901;27;45375;-73
2022/03/31 04:59:52;;;;;;;;;3.00;3.00;;;;;;;;5121194;27;45399;-72
2022/03/31 05:02:18;;;;;;;;;4.67;4.00;;;;;;;;5120973;27;45558;-72
2022/03/31 05:04:43;;;;;;;;;7.00;4.00;;;;;;;;5129444;27;47103;-72
2022/03/31 05:07:09;;;;;;;;;3.00;3.00;;;;;;;;5141724;27;45470;-72
2022/03/31 05:09:34;;;;;;;;;8.00;7.00;;;;;;;;5141162;27;45314;-72
2022/03/31 05:11:59;;;;;;;;;5.67;5.67;;;;;;;;5141374;27;45332;-72
2022/03/31 05:14:25;;;;;;;;;7.00;7.00;;;;;;;;5142014;27;45498;-72
2022/03/31 05:16:50;;;;;;;;;4.00;4.00;;;;;;;;5129404;27;45391;-72
2022/03/31 05:19:15;;;;;;;;;8.33;7.00;;;;;;;;5136783;27;45368;-72
2022/03/31 05:21:41;;;;;;;;;7.00;7.00;;;;;;;;5135278;27;45371;-72
2022/03/31 05:24:06;;;;;;;;;4.00;4.00;;;;;;;;5120967;27;46432;-71
2022/03/31 05:26:31;;;;;;;;;7.00;4.00;;;;;;;;5121361;27;45304;-71
2022/03/31 05:28:57;;;;;;;;;8.33;8.33;;;;;;;;5136764;27;45309;-71
2022/03/31 05:31:22;;;;;;;;;3.00;3.00;;;;;;;;5121372;27;45397;-71
2022/03/31 05:33:47;;;;;;;;;4.00;4.00;;;;;;;;5134218;27;46585;-71
2022/03/31 05:36:13;;;;;;;;;4.00;3.00;;;;;;;;5140606;27;45345;-71
2022/03/31 05:38:38;;;;;;;;;2.00;2.00;;;;;;;;5122911;27;45365;-71
2022/03/31 05:41:03;;;;;;;;;3.00;3.00;;;;;;;;5121310;27;45389;-71
2022/03/31 05:43:29;;;;;;;;;2.00;2.00;;;;;;;;5137059;27;46882;-71
2022/03/31 05:45:54;;;;;;;;;2.33;2.33;;;;;;;;5139770;27;45176;-71
2022/03/31 05:48:19;;;;;;;;;3.00;3.00;;;;;;;;5141156;27;45184;-71
2022/03/31 05:50:45;;;;;;;;;3.00;3.00;;;;;;;;5141670;27;45375;-72
2022/03/31 05:53:10;;;;;;;;;2.00;2.00;;;;;;;;5140746;27;46359;-73
2022/03/31 05:55:36;;;;;;;;;2.33;2.33;;;;;;;;5139532;27;45466;-73
2022/03/31 05:58:01;;;;;;;;;2.00;2.00;;;;;;;;5129586;27;45442;-72
2022/03/31 06:00:26;;;;;;;;;2.67;2.67;;;;;;;;5108999;27;45523;-72
2022/03/31 06:02:53;;;;;;;;;4.33;3.00;;;;;;;;5129784;27;45400;-72
2022/03/31 06:05:19;;;;;;;;;2.33;2.00;;;;;;;;5119495;27;45335;-72
2022/03/31 06:07:44;;;;;;;;;3.00;3.00;;;;;;;;5120873;27;45353;-71
2022/03/31 06:10:10;;;;;;;;;7.00;3.00;;;;;;;;5136796;27;45480;-72
2022/03/31 06:12:35;;;;;;;;;5.00;4.00;;;;;;;;5125522;27;46679;-71
2022/03/31 06:15:03;;;;;;;;;3.00;3.00;;;;;;;;5119444;27;45340;-71
2022/03/31 06:17:29;;;;;;;;;4.00;4.00;;;;;;;;5120360;27;45431;-72
2022/03/31 06:19:54;;;;;;;;;3.33;3.33;;;;;;;;5120156;27;45367;-72
2022/03/31 06:22:19;;;;;;;;;5.33;4.00;;;;;;;;5120029;27;46605;-72
2022/03/31 06:24:44;;;;;;;;;2.33;2.33;;;;;;;;5120060;27;45439;-79
2022/03/31 06:27:11;;;;;;;;;9.00;5.67;;;;;;;;5120249;27;45314;-78
2022/03/31 06:29:36;;;;;;;;;6.33;5.33;;;;;;;;5119573;27;45403;-77
2022/03/31 06:32:02;;;;;;;;;7.00;4.67;;;;;;;;5120625;27;46151;-77
2022/03/31 06:34:28;;;;;;;;;8.67;5.67;;;;;;;;5120779;27;45364;-75
2022/03/31 06:36:54;;;;;;;;;4.33;3.33;;;;;;;;5119605;27;45226;-75
2022/03/31 06:39:20;;;;;;;;;7.00;5.33;;;;;;;;5132489;27;45564;-77
2022/03/31 06:41:45;;;;;;;;;9.33;6.00;;;;;;;;5137903;27;46561;-77
2022/03/31 06:44:13;;;;;;;;;10.33;7.00;;;;;;;;5129014;27;45613;-76
2022/03/31 06:46:38;;;;;;;;;11.00;5.67;;;;;;;;5119871;27;45310;-71
2022/03/31 06:49:04;;;;;;;;;7.00;5.33;;;;;;;;5120008;27;45467;-71
2022/03/31 06:51:29;;;;;;;;;8.00;5.00;;;;;;;;5118801;27;46098;-71
2022/03/31 06:53:57;;;;;;;;;11.33;10.00;;;;;;;;5119051;27;45304;-71
2022/03/31 06:56:23;;;;;;;;;8.33;5.00;;;;;;;;5119475;27;45272;-71
2022/03/31 06:58:48;;;;;;;;;4.67;3.33;;;;;;;;5119607;27;45475;-71
2022/03/31 07:01:14;;;;;;;;;3.67;3.67;;;;;;;;5119467;27;45529;-71
2022/03/31 07:03:39;;;;;;;;;6.33;4.00;;;;;;;;5115165;27;45499;-71
2022/03/31 07:06:06;;;;;;;;;5.00;5.00;;;;;;;;5099108;27;45297;-71
2022/03/31 07:08:33;;;;;;;;;3.00;3.00;;;;;;;;5100002;27;45469;-71
2022/03/31 07:10:59;;;;;;;;;4.00;4.00;;;;;;;;5102846;27;46576;-71
2022/03/31 07:13:24;;;;;;;;;7.33;5.00;;;;;;;;5118634;27;45472;-71
2022/03/31 07:15:49;;;;;;;;;8.33;7.00;;;;;;;;5112548;27;45270;-71
2022/03/31 07:18:15;;;;;;;;;7.33;4.67;;;;;;;;5112734;27;45327;-71
2022/03/31 07:20:40;;;;;;;;;5.00;3.67;;;;;;;;5101393;27;47056;-71
2022/03/31 07:23:06;;;;;;;;;5.00;1.33;;;;;;;;5098695;27;45221;-72
2022/03/31 07:25:31;;;;;;;;;4.00;4.00;;;;;;;;5098979;27;45480;-71
2022/03/31 07:27:57;;;;;;;;;3.33;2.67;;;;;;;;5117087;27;45289;-72
2022/03/31 07:30:23;;;;;;;;;4.00;4.00;;;;;;;;5117641;27;45348;-71
2022/03/31 07:32:59;;;;;;;;;6.67;5.00;;;;;;;;5135882;27;45402;-72
2022/03/31 07:35:26;;;;;;;;;10.00;7.67;;;;;;;;5139907;27;45325;-72
2022/03/31 07:37:52;;;;;;;;;4.00;3.00;;;;;;;;5119474;27;45294;-72
2022/03/31 07:40:17;;;;;;;;;4.67;4.67;;;;;;;;5118986;27;45313;-72
2022/03/31 07:42:43;;;;;;;;;5.67;4.00;;;;;;;;5118885;27;45389;-72
2022/03/31 07:45:09;;;;;;;;;8.33;5.00;;;;;;;;5135914;27;45434;-72
2022/03/31 07:47:34;;;;;;;;;7.00;4.67;;;;;;;;5118923;27;45251;-72
2022/03/31 07:49:59;;;;;;;;;6.33;6.33;;;;;;;;5118016;27;45379;-72
2022/03/31 07:52:25;;;;;;;;;7.00;3.67;;;;;;;;5118156;27;45520;-72
2022/03/31 07:54:50;;;;;;;;;5.33;4.00;;;;;;;;5118637;27;45282;-72
2022/03/31 07:57:16;;;;;;;;;6.33;5.00;;;;;;;;5118785;27;45379;-71
2022/03/31 07:59:41;;;;;;;;;8.33;6.33;;;;;;;;5117467;27;45443;-72
2022/03/31 08:02:06;;;;;;;;;4.33;3.67;;;;;;;;5118656;27;45275;-72
2022/03/31 08:04:32;;;;;;;;;3.67;3.67;;;;;;;;5130443;27;45433;-72
2022/03/31 08:06:57;;;;;;;;;9.00;9.00;;;;;;;;5138557;27;45412;-72
2022/03/31 08:09:22;;;;;;;;;8.33;8.00;;;;;;;;5136653;27;45410;-72
2022/03/31 08:11:49;;;;;;;;;8.33;5.00;;;;;;;;5131629;27;45441;-71
2022/03/31 08:14:16;;;;;;;;;5.00;5.00;;;;;;;;5118309;27;45524;-71
2022/03/31 08:16:42;;;;;;;;;6.00;6.00;;;;;;;;5100151;27;45339;-72
2022/03/31 08:19:08;;;;;;;;;11.33;9.00;;;;;;;;5117301;27;46088;-72
2022/03/31 08:21:33;;;;;;;;;11.67;11.00;;;;;;;;5118074;27;45444;-72
2022/03/31 08:23:58;;;;;;;;;7.33;7.00;;;;;;;;5118138;27;45409;-72
2022/03/31 08:26:24;;;;;;;;;8.67;8.67;;;;;;;;5118484;27;45273;-72
2022/03/31 08:28:50;;;;;;;;;7.00;7.00;;;;;;;;5117409;27;46639;-72
2022/03/31 08:31:15;;;;;;;;;10.33;8.33;;;;;;;;5117852;27;45363;-72
2022/03/31 08:33:42;;;;;;;;;11.00;8.00;;;;;;;;5099018;27;45327;-72
2022/03/31 08:36:08;;;;;;;;;7.00;6.67;;;;;;;;5118178;27;45435;-72
2022/03/31 08:38:33;;;;;;;;;13.67;13.67;;;;;;;;5132394;27;45460;-72
2022/03/31 08:40:58;;;;;;;;;12.67;10.67;;;;;;;;5118152;27;45358;-73
2022/03/31 08:43:26;;;;;;;;;14.33;9.33;;;;;;;;5118343;27;45275;-73
2022/03/31 08:45:55;;;;;;;;;7.33;7.33;;;;;;;;5117867;27;45391;-73
2022/03/31 08:48:21;;;;;;;;;12.67;10.67;;;;;;;;5117440;27;45274;-72
2022/03/31 08:50:46;;;;;;;;;9.67;9.00;;;;;;;;5117655;27;45277;-72
2022/03/31 08:53:12;;;;;;;;;9.67;9.67;;;;;;;;5099059;27;45514;-73
2022/03/31 08:55:37;;;;;;;;;13.00;12.67;;;;;;;;5097611;27;45310;-73
2022/03/31 08:58:02;;;;;;;;;7.00;7.00;;;;;;;;5096915;27;47324;-72
2022/03/31 09:00:28;;;;;;;;;8.00;7.00;;;;;;;;5096878;27;45264;-73
2022/03/31 09:02:53;;;;;;;;;15.00;13.67;;;;;;;;5101254;27;45196;-73
2022/03/31 09:05:18;;;;;;;;;12.00;10.67;;;;;;;;5111770;27;45312;-72
2022/03/31 09:07:58;;;;;;;;;10.00;9.33;;;;;;;;5100885;27;46223;-72
2022/03/31 09:10:31;;;;;;;;;10.00;8.00;;;;;;;;5100854;27;45473;-72
2022/03/31 09:12:57;;;;;;;;;16.33;13.33;;;;;;;;5120809;27;45433;-72
2022/03/31 09:15:23;;;;;;;;;14.33;13.00;;;;;;;;5116541;27;45489;-72
2022/03/31 09:17:57;;;;;;;;;14.33;14.33;;;;;;;;5117277;27;45411;-72
2022/03/31 09:20:23;;;;;;;;;12.33;10.33;;;;;;;;5097627;27;45497;-72
2022/03/31 09:22:49;;;;;;;;;11.33;9.67;;;;;;;;5097778;27;45441;-73
2022/03/31 09:25:28;;;;;;;;;10.00;9.67;;;;;;;;5099600;27;45310;-73
2022/03/31 09:27:55;;;;;;;;;8.33;7.00;;;;;;;;5101625;27;45775;-73
2022/03/31 09:30:21;;;;;;;;;5.67;5.67;;;;;;;;5106327;27;45336;-73
2022/03/31 09:32:47;;;;;;;;;8.33;8.00;;;;;;;;5121122;27;45311;-73
2022/03/31 09:35:16;;;;;;;;;6.00;6.00;;;;;;;;5121038;27;45371;-73
2022/03/31 09:37:41;;;;;;;;;5.00;5.00;;;;;;;;5116531;27;45597;-73
2022/03/31 09:40:07;;;;;;;;;4.67;4.67;;;;;;;;5099747;27;45348;-71
2022/03/31 09:42:32;;;;;;;;;6.00;4.00;;;;;;;;5099650;27;45392;-71
2022/03/31 09:44:58;;;;;;;;;5.67;4.00;;;;;;;;5104654;27;45495;-71
2022/03/31 09:47:26;;;;;;;;;9.67;7.00;;;;;;;;5099246;27;46086;-70
2022/03/31 09:49:52;;;;;;;;;5.67;5.33;;;;;;;;5097898;27;45449;-70
2022/03/31 09:52:19;;;;;;;;;9.00;7.67;;;;;;;;5110048;27;45555;-70
2022/03/31 09:54:45;;;;;;;;;7.33;6.00;;;;;;;;5119512;27;45250;-70
2022/03/31 09:57:11;;;;;;;;;5.67;5.67;;;;;;;;5119794;27;45648;-70
2022/03/31 09:59:41;;;;;;;;;5.67;5.67;;;;;;;;5100736;27;45796;-70
2022/03/31 10:02:07;;;;;;;;;5.67;5.67;;;;;;;;5119602;27;45447;-70
2022/03/31 10:04:33;;;;;;;;;4.33;4.33;;;;;;;;5120118;27;45506;-70
2022/03/31 10:06:58;;;;;;;;;9.00;7.67;;;;;;;;5128237;27;47506;-70
2022/03/31 10:09:24;;;;;;;;;4.00;3.00;;;;;;;;5119203;27;45427;-71
2022/03/31 10:12:00;;;;;;;;;7.00;5.33;;;;;;;;5134316;27;45482;-70
2022/03/31 10:14:31;;;;;;;;;7.00;6.00;;;;;;;;5134670;27;45530;-71
2022/03/31 10:17:01;;;;;;;;;7.33;6.33;;;;;;;;5119258;27;46566;-71
2022/03/31 10:19:29;;;;;;;;;6.00;4.67;;;;;;;;5119196;27;45437;-73
2022/03/31 10:21:58;;;;;;;;;4.00;4.00;;;;;;;;5119421;27;45408;-71
2022/03/31 10:24:44;;;;;;;;;4.00;4.00;;;;;;;;5119935;27;45446;-70
2022/03/31 10:27:13;;;;;;;;;6.67;5.00;;;;;;;;5119568;27;45382;-73
2022/03/31 10:29:39;;;;;;;;;4.00;4.00;;;;;;;;5119484;27;45185;-72
2022/03/31 10:32:14;;;;;;;;;5.00;5.00;;;;;;;;5119650;27;45468;-72
2022/03/31 10:34:44;;;;;;;;;4.00;4.00;;;;;;;;5119283;27;45415;-72
2022/03/31 10:37:10;;;;;;;;;2.00;2.00;;;;;;;;5119070;27;47191;-70
2022/03/31 10:39:35;;;;;;;;;1.75;1.75;;;;;;;;5118991;27;45217;-70
2022/03/31 10:42:02;;;;;;;;;1.00;1.00;;;;;;;;5119180;27;45454;-72
2022/03/31 10:44:27;;;;;;;;;1.75;1.75;;;;;;;;5118595;27;45470;-70
2022/03/31 10:47:00;;;;;;;;;3.67;2.00;;;;;;;;5118556;27;45512;-71
2022/03/31 10:49:25;;;;;;;;;2.50;2.50;;;;;;;;5138069;27;45405;-71
2022/03/31 10:51:51;;;;;;;;;2.50;2.50;;;;;;;;5139906;27;45369;-72
2022/03/31 10:54:24;;;;;;;;;3.00;2.00;;;;;;;;5121255;27;45591;-71
2022/03/31 10:57:00;;;;;;;;;2.25;1.00;;;;;;;;5117892;27;46580;-71
2022/03/31 10:59:25;;;;;;;;;3.25;1.00;;;;;;;;5098406;27;45399;-70
2022/03/31 11:01:52;;;;;;;;;1.00;1.00;;;;;;;;5105843;27;45495;-69
2022/03/31 11:04:17;;;;;;;;;3.00;0.75;;;;;;;;5098820;27;45240;-70
2022/03/31 11:06:45;;;;;;;;;2.67;2.67;;;;;;;;5098123;27;45505;-70
2022/03/31 11:09:18;;;;;;;;;1.25;1.25;;;;;;;;5098362;27;45522;-70
2022/03/31 11:11:49;;;;;;;;;2.50;1.00;;;;;;;;5098530;27;45324;-70
2022/03/31 11:14:17;;;;;;;;;1.00;1.00;;;;;;;;5105466;27;45447;-71
2022/03/31 11:16:43;;;;;;;;;4.25;2.00;;;;;;;;5117113;27;45647;-73
2022/03/31 11:19:08;;;;;;;;;2.00;1.75;;;;;;;;5118414;27;45481;-70
2022/03/31 11:21:34;;;;;;;;;1.00;0.25;;;;;;;;5126368;27;45213;-70
2022/03/31 11:24:00;;;;;;;;;1.00;1.00;;;;;;;;5123042;27;45474;-70
2022/03/31 11:26:26;;;;;;;;;2.00;1.00;;;;;;;;5127550;27;45456;-70
2022/03/31 11:28:51;;;;;;;;;3.00;2.00;;;;;;;;5139248;27;45480;-70
2022/03/31 11:31:17;;;;;;;;;2.00;2.00;;;;;;;;5126038;27;45461;-72
2022/03/31 11:33:43;;;;;;;;;2.00;2.00;;;;;;;;5117389;27;45463;-72
2022/03/31 11:36:09;;;;;;;;;1.25;1.00;;;;;;;;5116839;27;46408;-70
2022/03/31 11:38:34;;;;;;;;;1.50;1.00;;;;;;;;5099754;27;45331;-70
2022/03/31 11:40:59;;;;;;;;;2.33;2.33;;;;;;;;5118272;27;45452;-71
2022/03/31 11:43:25;;;;;;;;;3.00;3.00;;;;;;;;5118698;27;45511;-70
2022/03/31 11:45:52;;;;;;;;;1.00;1.00;;;;;;;;5117283;27;46485;-71
2022/03/31 11:48:18;;;;;;;;;3.33;2.00;;;;;;;;5118411;27;45336;-71
2022/03/31 11:50:53;;;;;;;;;1.00;1.00;;;;;;;;5117742;27;45314;-70
2022/03/31 11:53:19;;;;;;;;;1.00;1.00;;;;;;;;5117173;27;45513;-71
2022/03/31 11:55:55;;;;;;;;;1.75;1.75;;;;;;;;5117836;27;46580;-70
2022/03/31 11:58:20;;;;;;;;;4.00;1.00;;;;;;;;5117510;27;45478;-70
2022/03/31 12:00:48;;;;;;;;;1.00;1.00;;;;;;;;5117698;27;45431;-70
2022/03/31 12:03:14;;;;;;;;;1.25;1.25;;;;;;;;5118362;27;45315;-71
2022/03/31 12:05:39;;;;;;;;;0.00;0.00;;;;;;;;5117799;27;46472;-71
2022/03/31 12:08:05;;;;;;;;;0.00;0.00;;;;;;;;5117272;27;45462;-70
2022/03/31 12:10:31;;;;;;;;;0.00;0.00;;;;;;;;5118221;27;45487;-71
2022/03/31 12:12:58;;;;;;;;;1.00;1.00;;;;;;;;5106909;27;45489;-70
2022/03/31 12:15:25;;;;;;;;;0.50;0.25;;;;;;;;5100978;27;47582;-70
2022/03/31 12:17:56;;;;;;;;;0.00;0.00;;;;;;;;5128962;27;45475;-71
2022/03/31 12:20:21;;;;;;;;;1.33;0.33;;;;;;;;5138544;27;45390;-70
2022/03/31 12:22:51;;;;;;;;;3.00;1.00;;;;;;;;5130432;27;45347;-70
2022/03/31 12:25:26;;;;;;;;;1.00;1.00;;;;;;;;5116346;27;46315;-70
2022/03/31 12:27:51;;;;;;;;;2.00;2.00;;;;;;;;5130491;27;45401;-71
2022/03/31 12:30:17;;;;;;;;;1.00;1.00;;;;;;;;5119718;27;45411;-72
2022/03/31 12:32:47;;;;;;;;;0.00;0.00;;;;;;;;5127060;27;45499;-71
2022/03/31 12:35:12;;;;;;;;;2.00;1.50;;;;;;;;5131960;27;46217;-72
2022/03/31 12:37:38;;;;;;;;;0.25;0.25;;;;;;;;5117556;27;45508;-71
2022/03/31 12:40:07;;;;;;;;;2.00;1.00;;;;;;;;5117677;27;45418;-71
2022/03/31 12:42:33;;;;;;;;;1.50;1.00;;;;;;;;5111409;27;45459;-71
2022/03/31 12:44:58;;;;;;;;;2.00;1.00;;;;;;;;5116772;27;46182;-70
2022/03/31 12:47:25;;;;;;;;;0.75;0.75;;;;;;;;5120962;27;45374;-71
2022/03/31 12:49:51;;;;;;;;;0.00;0.00;;;;;;;;5121277;27;45528;-71
2022/03/31 12:52:18;;;;;;;;;0.00;0.00;;;;;;;;5120636;27;45664;-71
2022/03/31 12:54:54;;;;;;;;;2.25;0.50;;;;;;;;5120794;27;46624;-71
2022/03/31 12:57:27;;;;;;;;;0.25;0.25;;;;;;;;5121110;27;45382;-71
2022/03/31 12:59:58;;;;;;;;;1.50;1.00;;;;;;;;5120642;27;45327;-71
2022/03/31 13:02:23;;;;;;;;;1.75;0.00;;;;;;;;5120454;27;45444;-71
2022/03/31 13:04:48;;;;;;;;;0.00;0.00;;;;;;;;5120281;27;46621;-71
2022/03/31 13:07:19;;;;;;;;;0.00;0.00;;;;;;;;5122563;27;45426;-71
2022/03/31 13:09:46;;;;;;;;;0.25;0.25;;;;;;;;5119946;27;45404;-71
2022/03/31 13:12:12;;;;;;;;;2.00;2.00;;;;;;;;5121623;27;45410;-71
2022/03/31 13:14:38;;;;;;;;;0.50;0.50;;;;;;;;5129437;27;47008;-71
2022/03/31 13:17:04;;;;;;;;;2.50;1.00;;;;;;;;5122115;27;45818;-71
2022/03/31 13:19:30;;;;;;;;;1.00;1.00;;;;;;;;5120482;27;45289;-71
2022/03/31 13:21:55;;;;;;;;;1.00;1.00;;;;;;;;5120175;27;45547;-71
2022/03/31 13:24:20;;;;;;;;;1.00;1.00;;;;;;;;5133133;27;47125;-70
2022/03/31 13:26:48;;;;;;;;;3.33;3.33;;;;;;;;5119971;27;45517;-70
2022/03/31 13:29:13;;;;;;;;;1.00;1.00;;;;;;;;5120258;27;45473;-70
2022/03/31 13:31:42;;;;;;;;;1.00;1.00;;;;;;;;5119989;27;45331;-71
2022/03/31 13:34:08;;;;;;;;;3.00;3.00;;;;;;;;5119948;27;46703;-73
2022/03/31 13:36:33;;;;;;;;;1.00;1.00;;;;;;;;5119658;27;45453;-71
2022/03/31 13:38:59;;;;;;;;;0.00;0.00;;;;;;;;5119999;27;45439;-73
2022/03/31 13:41:24;;;;;;;;;1.00;1.00;;;;;;;;5120217;27;45580;-71
2022/03/31 13:43:49;;;;;;;;;1.00;1.00;;;;;;;;5124169;27;46010;-72
2022/03/31 13:46:15;;;;;;;;;3.25;2.00;;;;;;;;5122286;27;45769;-71
2022/03/31 13:48:40;;;;;;;;;2.00;2.00;;;;;;;;5141231;27;45359;-71
2022/03/31 13:51:05;;;;;;;;;1.33;1.33;;;;;;;;5138705;27;45578;-70
2022/03/31 13:53:45;;;;;;;;;5.33;5.00;;;;;;;;5119281;27;46458;-71
2022/03/31 13:56:12;;;;;;;;;1.25;1.00;;;;;;;;5131677;27;45438;-72
2022/03/31 14:01:21;;;;;;;;;1.75;0.00;;;;;;;;5128675;27;45539;-72
2022/03/31 14:03:47;;;;;;;;;0.00;0.00;;;;;;;;5138875;27;46302;-71
2022/03/31 14:06:15;;;;;;;;;1.00;1.00;;;;;;;;5135201;27;45555;-72
2022/03/31 14:08:41;;;;;;;;;1.00;1.00;;;;;;;;5120119;27;45458;-72
2022/03/31 14:11:07;;;;;;;;;0.50;0.50;;;;;;;;5132860;27;45426;-71
2022/03/31 14:13:33;;;;;;;;;1.00;1.00;;;;;;;;5120436;27;45996;-71
2022/03/31 14:16:02;;;;;;;;;1.00;1.00;;;;;;;;5125001;27;45388;-70
2022/03/31 14:18:28;;;;;;;;;0.50;0.50;;;;;;;;5133981;27;45455;-71
2022/03/31 14:20:54;;;;;;;;;1.33;1.00;;;;;;;;5119984;27;45553;-71
2022/03/31 14:23:19;;;;;;;;;0.75;0.75;;;;;;;;5120379;27;46115;-71
2022/03/31 14:25:44;;;;;;;;;0.00;0.00;;;;;;;;5140253;27;45420;-71
2022/03/31 14:28:09;;;;;;;;;4.00;2.00;;;;;;;;5140393;27;45406;-71
2022/03/31 14:30:35;;;;;;;;;4.00;3.00;;;;;;;;5140371;27;45305;-71
2022/03/31 14:33:00;;;;;;;;;1.00;1.00;;;;;;;;5126592;27;46208;-71
2022/03/31 14:35:25;;;;;;;;;3.33;3.00;;;;;;;;5125278;27;45634;-71